sensor_id;sensor_type;location;lat;lon;timestamp;pressure;altitude;pressure_sealevel;temperature;humidity
58955;BME280;45815;52.334;5.024;2023-08-24T00:00:41;101883.38;;;19.06;100.00
58955;BME280;45815;52.334;5.024;2023-08-24T00:03:07;101871.81;;;19.07;100.00
58955;BME280;45815;52.334;5.024;2023-08-24T00:05:37;101856.75;;;19.05;100.00
58955;BME280;45815;52.334;5.024;2023-08-24T00:08:06;101862.09;;;19.06;100.00
58955;BME280;45815;52.334;5.024;2023-08-24T00:10:31;101860.31;;;19.08;100.00
58955;BME280;45815;52.334;5.024;2023-08-24T00:12:58;101862.06;;;19.09;100.00
58955;BME280;45815;52.334;5.024;2023-08-24T00:15:23;101860.31;;;19.08;100.00
58955;BME280;45815;52.334;5.024;2023-08-24T00:17:49;101862.97;;;19.11;100.00
58955;BME280;45815;52.334;5.024;2023-08-24T00:20:15;101854.09;;;19.15;100.00
58955;BME280;45815;52.334;5.024;2023-08-24T00:22:41;101854.09;;;19.17;100.00
58955;BME280;45815;52.334;5.024;2023-08-24T00:25:07;101860.31;;;19.17;100.00
58955;BME280;45815;52.334;5.024;2023-08-24T00:27:33;101860.31;;;19.17;100.00
58955;BME280;45815;52.334;5.024;2023-08-24T00:29:59;101860.31;;;19.17;100.00
58955;BME280;45815;52.334;5.024;2023-08-24T00:32:25;101847.88;;;19.21;100.00
58955;BME280;45815;52.334;5.024;2023-08-24T00:34:50;101843.44;;;19.23;100.00
58955;BME280;45815;52.334;5.024;2023-08-24T00:37:15;101842.56;;;19.23;100.00
58955;BME280;45815;52.334;5.024;2023-08-24T00:39:41;101837.25;;;19.23;100.00
58955;BME280;45815;52.334;5.024;2023-08-24T00:42:06;101824.81;;;19.22;100.00
58955;BME280;45815;52.334;5.024;2023-08-24T00:44:32;101819.47;;;19.22;100.00
58955;BME280;45815;52.334;5.024;2023-08-24T00:46:58;101823.03;;;19.24;100.00
58955;BME280;45815;52.334;5.024;2023-08-24T00:49:25;101825.69;;;19.24;100.00
58955;BME280;45815;52.334;5.024;2023-08-24T00:51:51;101831.00;;;19.22;100.00
58955;BME280;45815;52.334;5.024;2023-08-24T00:54:17;101831.91;;;19.19;100.00
58955;BME280;45815;52.334;5.024;2023-08-24T00:56:44;101847.88;;;19.19;100.00
58955;BME280;45815;52.334;5.024;2023-08-24T00:59:09;101840.78;;;19.18;100.00
58955;BME280;45815;52.334;5.024;2023-08-24T01:01:35;101836.38;;;19.17;100.00
58955;BME280;45815;52.334;5.024;2023-08-24T01:04:01;101833.69;;;19.17;100.00
58955;BME280;45815;52.334;5.024;2023-08-24T01:06:27;101832.81;;;19.18;100.00
58955;BME280;45815;52.334;5.024;2023-08-24T01:08:53;101837.25;;;19.18;100.00
58955;BME280;45815;52.334;5.024;2023-08-24T01:11:43;101843.44;;;19.17;100.00
58955;BME280;45815;52.334;5.024;2023-08-24T01:17:01;101847.88;;;19.10;100.00
58955;BME280;45815;52.334;5.024;2023-08-24T01:25:20;101848.78;;;19.14;100.00
58955;BME280;45815;52.334;5.024;2023-08-24T01:27:50;101846.09;;;19.09;100.00
58955;BME280;45815;52.334;5.024;2023-08-24T01:30:17;101858.53;;;19.16;100.00
58955;BME280;45815;52.334;5.024;2023-08-24T01:32:43;101835.44;;;19.08;100.00
58955;BME280;45815;52.334;5.024;2023-08-24T01:35:09;101846.09;;;19.12;100.00
58955;BME280;45815;52.334;5.024;2023-08-24T01:37:36;101846.09;;;19.09;100.00
58955;BME280;45815;52.334;5.024;2023-08-24T01:40:12;101844.31;;;19.10;100.00
58955;BME280;45815;52.334;5.024;2023-08-24T01:42:51;101823.94;;;19.03;100.00
58955;BME280;45815;52.334;5.024;2023-08-24T01:45:18;101804.44;;;19.08;100.00
58955;BME280;45815;52.334;5.024;2023-08-24T01:47:45;101793.78;;;19.08;100.00
58955;BME280;45815;52.334;5.024;2023-08-24T01:50:12;101811.50;;;19.08;100.00
58955;BME280;45815;52.334;5.024;2023-08-24T01:52:39;101813.28;;;19.09;100.00
58955;BME280;45815;52.334;5.024;2023-08-24T01:55:05;101815.06;;;19.10;100.00
58955;BME280;45815;52.334;5.024;2023-08-24T01:57:31;101815.94;;;19.07;100.00
58955;BME280;45815;52.334;5.024;2023-08-24T01:59:57;101817.72;;;19.07;100.00
58955;BME280;45815;52.334;5.024;2023-08-24T02:02:23;101813.28;;;19.07;100.00
58955;BME280;45815;52.334;5.024;2023-08-24T02:04:49;101813.28;;;19.07;100.00
58955;BME280;45815;52.334;5.024;2023-08-24T02:07:14;101808.84;;;19.05;100.00
58955;BME280;45815;52.334;5.024;2023-08-24T02:09:40;101818.59;;;19.03;100.00
58955;BME280;45815;52.334;5.024;2023-08-24T02:12:06;101815.97;;;19.04;100.00
58955;BME280;45815;52.334;5.024;2023-08-24T02:14:31;101814.19;;;19.00;100.00
58955;BME280;45815;52.334;5.024;2023-08-24T02:16:57;101807.09;;;19.02;100.00
58955;BME280;45815;52.334;5.024;2023-08-24T02:19:22;101807.97;;;19.03;100.00
58955;BME280;45815;52.334;5.024;2023-08-24T02:21:48;101798.22;;;19.02;100.00
58955;BME280;45815;52.334;5.024;2023-08-24T02:24:13;101790.22;;;19.00;100.00
58955;BME280;45815;52.334;5.024;2023-08-24T02:26:39;101783.13;;;18.97;100.00
58955;BME280;45815;52.334;5.024;2023-08-24T02:29:04;101786.69;;;18.96;100.00
58955;BME280;45815;52.334;5.024;2023-08-24T02:31:29;101790.22;;;18.94;100.00
58955;BME280;45815;52.334;5.024;2023-08-24T02:33:55;101792.00;;;18.93;100.00
58955;BME280;45815;52.334;5.024;2023-08-24T02:36:21;101790.22;;;18.94;100.00
58955;BME280;45815;52.334;5.024;2023-08-24T02:38:47;101783.13;;;18.87;100.00
58955;BME280;45815;52.334;5.024;2023-08-24T02:41:12;101781.38;;;18.90;100.00
58955;BME280;45815;52.334;5.024;2023-08-24T02:43:40;101766.31;;;18.88;100.00
58955;BME280;45815;52.334;5.024;2023-08-24T02:46:07;101766.31;;;18.88;100.00
58955;BME280;45815;52.334;5.024;2023-08-24T02:48:33;101760.09;;;18.86;100.00
58955;BME280;45815;52.334;5.024;2023-08-24T02:51:02;101768.97;;;18.83;100.00
58955;BME280;45815;52.334;5.024;2023-08-24T02:53:29;101764.50;;;18.77;100.00
58955;BME280;45815;52.334;5.024;2023-08-24T02:55:58;101768.94;;;18.74;100.00
58955;BME280;45815;52.334;5.024;2023-08-24T02:58:23;101755.63;;;18.66;100.00
58955;BME280;45815;52.334;5.024;2023-08-24T03:00:49;101767.13;;;18.73;100.00
58955;BME280;45815;52.334;5.024;2023-08-24T03:03:14;101760.03;;;18.70;100.00
58955;BME280;45815;52.334;5.024;2023-08-24T03:05:41;101751.22;;;18.68;100.00
58955;BME280;45815;52.334;5.024;2023-08-24T03:08:06;101746.78;;;18.64;100.00
58955;BME280;45815;52.334;5.024;2023-08-24T03:10:36;101749.44;;;18.60;100.00
58955;BME280;45815;52.334;5.024;2023-08-24T03:13:01;101738.78;;;18.58;100.00
58955;BME280;45815;52.334;5.024;2023-08-24T03:15:29;101729.03;;;18.57;100.00
58955;BME280;45815;52.334;5.024;2023-08-24T03:17:55;101729.91;;;18.53;100.00
58955;BME280;45815;52.334;5.024;2023-08-24T03:20:20;101731.69;;;18.51;100.00
58955;BME280;45815;52.334;5.024;2023-08-24T03:22:47;101728.13;;;18.49;100.00
58955;BME280;45815;52.334;5.024;2023-08-24T03:25:13;101725.50;;;18.46;100.00
58955;BME280;45815;52.334;5.024;2023-08-24T03:27:38;101728.16;;;18.46;100.00
58955;BME280;45815;52.334;5.024;2023-08-24T03:30:05;101729.00;;;18.45;100.00
58955;BME280;45815;52.334;5.024;2023-08-24T03:32:30;101725.50;;;18.43;100.00
58955;BME280;45815;52.334;5.024;2023-08-24T03:34:59;101722.81;;;18.37;100.00
58955;BME280;45815;52.334;5.024;2023-08-24T03:37:25;101722.81;;;18.37;100.00
58955;BME280;45815;52.334;5.024;2023-08-24T03:39:50;101730.78;;;18.37;100.00
58955;BME280;45815;52.334;5.024;2023-08-24T03:42:17;101726.38;;;18.35;100.00
58955;BME280;45815;52.334;5.024;2023-08-24T03:44:42;101740.53;;;18.31;100.00
58955;BME280;45815;52.334;5.024;2023-08-24T03:47:08;101739.66;;;18.29;100.00
58955;BME280;45815;52.334;5.024;2023-08-24T03:49:34;101732.53;;;18.25;100.00
58955;BME280;45815;52.334;5.024;2023-08-24T03:51:59;101727.22;;;18.24;100.00
58955;BME280;45815;52.334;5.024;2023-08-24T03:54:25;101725.44;;;18.21;100.00
58955;BME280;45815;52.334;5.024;2023-08-24T03:56:51;101720.13;;;18.18;100.00
58955;BME280;45815;52.334;5.024;2023-08-24T03:59:17;101716.56;;;18.08;100.00
58955;BME280;45815;52.334;5.024;2023-08-24T04:01:42;101719.25;;;18.13;100.00
58955;BME280;45815;52.334;5.024;2023-08-24T04:04:08;101724.56;;;18.10;100.00
58955;BME280;45815;52.334;5.024;2023-08-24T04:06:33;101717.44;;;18.07;100.00
58955;BME280;45815;52.334;5.024;2023-08-24T04:09:01;101718.34;;;18.06;100.00
58955;BME280;45815;52.334;5.024;2023-08-24T04:11:26;101722.78;;;18.06;100.00
58955;BME280;45815;52.334;5.024;2023-08-24T04:13:52;101726.28;;;18.05;100.00
58955;BME280;45815;52.334;5.024;2023-08-24T04:16:18;101723.66;;;18.02;100.00
58955;BME280;45815;52.334;5.024;2023-08-24T04:18:44;101729.84;;;18.02;100.00
58955;BME280;45815;52.334;5.024;2023-08-24T04:21:09;101728.97;;;18.02;100.00
58955;BME280;45815;52.334;5.024;2023-08-24T04:23:34;101730.72;;;18.01;100.00
58955;BME280;45815;52.334;5.024;2023-08-24T04:26:00;101726.28;;;18.00;100.00
58955;BME280;45815;52.334;5.024;2023-08-24T04:28:25;101725.41;;;18.00;100.00
58955;BME280;45815;52.334;5.024;2023-08-24T04:30:54;101718.34;;;17.99;100.00
58955;BME280;45815;52.334;5.024;2023-08-24T04:33:21;101723.63;;;17.96;100.00
58955;BME280;45815;52.334;5.024;2023-08-24T04:35:48;101715.66;;;17.94;100.00
58955;BME280;45815;52.334;5.024;2023-08-24T04:38:13;101721.84;;;17.91;100.00
58955;BME280;45815;52.334;5.024;2023-08-24T04:43:14;101735.13;;;17.90;100.00
58955;BME280;45815;52.334;5.024;2023-08-24T04:45:40;101731.56;;;17.88;100.00
58955;BME280;45815;52.334;5.024;2023-08-24T04:48:05;101731.56;;;17.88;100.00
58955;BME280;45815;52.334;5.024;2023-08-24T04:50:31;101725.38;;;17.87;100.00
58955;BME280;45815;52.334;5.024;2023-08-24T04:52:56;101721.81;;;17.88;100.00
58955;BME280;45815;52.334;5.024;2023-08-24T04:55:22;101727.13;;;17.88;100.00
58955;BME280;45815;52.334;5.024;2023-08-24T04:57:48;101730.69;;;17.90;100.00
58955;BME280;45815;52.334;5.024;2023-08-24T05:00:14;101727.13;;;17.88;100.00
58955;BME280;45815;52.334;5.024;2023-08-24T05:02:42;101728.03;;;17.90;100.00
58955;BME280;45815;52.334;5.024;2023-08-24T05:05:08;101718.31;;;17.92;100.00
58955;BME280;45815;52.334;5.024;2023-08-24T05:07:37;101703.25;;;17.93;100.00
58955;BME280;45815;52.334;5.024;2023-08-24T05:10:03;101707.72;;;18.02;100.00
58955;BME280;45815;52.334;5.024;2023-08-24T05:12:28;101700.63;;;18.01;100.00
58955;BME280;45815;52.334;5.024;2023-08-24T05:14:55;101699.75;;;18.08;100.00
58955;BME280;45815;52.334;5.024;2023-08-24T05:17:20;101674.94;;;18.01;100.00
58955;BME280;45815;52.334;5.024;2023-08-24T05:19:51;101688.22;;;18.09;100.00
58955;BME280;45815;52.334;5.024;2023-08-24T05:22:16;101691.78;;;18.09;100.00
58955;BME280;45815;52.334;5.024;2023-08-24T05:24:41;101677.59;;;18.09;100.00
58955;BME280;45815;52.334;5.024;2023-08-24T05:27:07;101683.78;;;18.09;100.00
58955;BME280;45815;52.334;5.024;2023-08-24T05:29:32;101675.84;;;18.08;100.00
58955;BME280;45815;52.334;5.024;2023-08-24T05:31:58;101664.31;;;18.04;100.00
58955;BME280;45815;52.334;5.024;2023-08-24T05:34:24;101676.75;;;18.14;100.00
58955;BME280;45815;52.334;5.024;2023-08-24T05:36:50;101682.94;;;18.21;100.00
58955;BME280;45815;52.334;5.024;2023-08-24T05:39:16;101675.88;;;18.26;100.00
58955;BME280;45815;52.334;5.024;2023-08-24T05:41:41;101676.75;;;18.31;100.00
58955;BME280;45815;52.334;5.024;2023-08-24T05:44:06;101675.88;;;18.35;100.00
58955;BME280;45815;52.334;5.024;2023-08-24T05:46:32;101662.56;;;18.40;100.00
58955;BME280;45815;52.334;5.024;2023-08-24T05:48:58;101665.22;;;18.42;100.00
58955;BME280;45815;52.334;5.024;2023-08-24T05:51:24;101664.34;;;18.47;100.00
58955;BME280;45815;52.334;5.024;2023-08-24T05:53:50;101670.53;;;18.51;100.00
58955;BME280;45815;52.334;5.024;2023-08-24T05:56:21;101665.22;;;18.55;100.00
58955;BME280;45815;52.334;5.024;2023-08-24T05:58:48;101669.66;;;18.60;100.00
58955;BME280;45815;52.334;5.024;2023-08-24T06:01:13;101658.13;;;18.65;100.00
58955;BME280;45815;52.334;5.024;2023-08-24T06:03:39;101643.94;;;18.69;100.00
58955;BME280;45815;52.334;5.024;2023-08-24T06:06:04;101643.03;;;18.73;100.00
58955;BME280;45815;52.334;5.024;2023-08-24T06:08:31;101643.94;;;18.79;100.00
58955;BME280;45815;52.334;5.024;2023-08-24T06:10:57;101646.63;;;18.85;100.00
58955;BME280;45815;52.334;5.024;2023-08-24T06:13:23;101638.59;;;18.92;100.00
58955;BME280;45815;52.334;5.024;2023-08-24T06:15:48;101638.56;;;19.00;100.00
58955;BME280;45815;52.334;5.024;2023-08-24T06:18:14;101632.31;;;19.12;100.00
58955;BME280;45815;52.334;5.024;2023-08-24T06:20:39;101630.50;;;19.22;100.00
58955;BME280;45815;52.334;5.024;2023-08-24T06:23:04;101617.19;;;19.29;100.00
58955;BME280;45815;52.334;5.024;2023-08-24T06:25:30;101613.59;;;19.35;100.00
58955;BME280;45815;52.334;5.024;2023-08-24T06:27:57;101592.31;;;19.35;100.00
58955;BME280;45815;52.334;5.024;2023-08-24T06:30:27;101607.31;;;19.47;100.00
58955;BME280;45815;52.334;5.024;2023-08-24T06:32:52;101610.84;;;19.52;100.00
58955;BME280;45815;52.334;5.024;2023-08-24T06:35:18;101612.59;;;19.56;100.00
58955;BME280;45815;52.334;5.024;2023-08-24T06:37:43;101611.69;;;19.58;100.00
58955;BME280;45815;52.334;5.024;2023-08-24T06:40:09;101603.69;;;19.61;100.00
58955;BME280;45815;52.334;5.024;2023-08-24T06:42:35;101594.78;;;19.66;100.00
58955;BME280;45815;52.334;5.024;2023-08-24T06:45:01;101582.31;;;19.77;100.00
58955;BME280;45815;52.334;5.024;2023-08-24T06:47:26;101587.56;;;19.86;100.00
58955;BME280;45815;52.334;5.024;2023-08-24T06:49:51;101581.34;;;19.90;100.00
58955;BME280;45815;52.334;5.024;2023-08-24T06:52:17;101579.50;;;19.92;100.00
58955;BME280;45815;52.334;5.024;2023-08-24T06:54:42;101590.16;;;19.95;100.00
58955;BME280;45815;52.334;5.024;2023-08-24T06:57:08;101589.25;;;19.98;100.00
58955;BME280;45815;52.334;5.024;2023-08-24T06:59:33;101596.34;;;20.00;100.00
58955;BME280;45815;52.334;5.024;2023-08-24T07:01:59;101601.63;;;20.03;100.00
58955;BME280;45815;52.334;5.024;2023-08-24T07:04:26;101595.41;;;20.08;100.00
58955;BME280;45815;52.334;5.024;2023-08-24T07:06:52;101603.38;;;20.09;100.00
58955;BME280;45815;52.334;5.024;2023-08-24T07:09:18;101593.63;;;20.05;100.00
58955;BME280;45815;52.334;5.024;2023-08-24T07:11:44;101598.91;;;20.13;100.00
58955;BME280;45815;52.334;5.024;2023-08-24T07:14:09;101575.81;;;20.09;100.00
58955;BME280;45815;52.334;5.024;2023-08-24T07:16:34;101583.75;;;20.19;100.00
58955;BME280;45815;52.334;5.024;2023-08-24T07:19:00;101575.72;;;20.24;100.00
58955;BME280;45815;52.334;5.024;2023-08-24T07:21:25;101570.31;;;20.30;100.00
58955;BME280;45815;52.334;5.024;2023-08-24T07:23:51;101543.72;;;20.24;100.00
58955;BME280;45815;52.334;5.024;2023-08-24T07:26:16;101558.66;;;20.40;100.00
58955;BME280;45815;52.334;5.024;2023-08-24T07:28:42;101563.03;;;20.48;100.00
58955;BME280;45815;52.334;5.024;2023-08-24T07:31:11;101567.44;;;20.56;100.00
58955;BME280;45815;52.334;5.024;2023-08-24T07:33:38;101567.34;;;20.64;100.00
58955;BME280;45815;52.334;5.024;2023-08-24T07:36:05;101564.56;;;20.73;100.00
58955;BME280;45815;52.334;5.024;2023-08-24T07:38:31;101550.25;;;20.79;100.00
58955;BME280;45815;52.334;5.024;2023-08-24T07:40:57;101523.63;;;20.77;100.00
58955;BME280;45815;52.334;5.024;2023-08-24T07:43:22;101533.25;;;20.87;100.00
58955;BME280;45815;52.334;5.024;2023-08-24T07:45:48;101550.94;;;20.96;100.00
58955;BME280;45815;52.334;5.024;2023-08-24T07:48:13;101540.16;;;21.04;100.00
58955;BME280;45815;52.334;5.024;2023-08-24T07:50:39;101539.16;;;21.14;100.00
58955;BME280;45815;52.334;5.024;2023-08-24T07:53:04;101549.69;;;21.23;100.00
58955;BME280;45815;52.334;5.024;2023-08-24T07:55:30;101541.59;;;21.31;100.00
58955;BME280;45815;52.334;5.024;2023-08-24T07:57:55;101537.94;;;21.35;100.00
58955;BME280;45815;52.334;5.024;2023-08-24T08:00:21;101529.81;;;21.46;100.00
58955;BME280;45815;52.334;5.024;2023-08-24T08:02:50;101526.94;;;21.58;100.00
58955;BME280;45815;52.334;5.024;2023-08-24T08:05:17;101510.78;;;21.67;100.00
58955;BME280;45815;52.334;5.024;2023-08-24T08:07:42;101509.75;;;21.75;100.00
58955;BME280;45815;52.334;5.024;2023-08-24T08:10:08;101503.44;;;21.80;100.00
58955;BME280;45815;52.334;5.024;2023-08-24T08:12:34;101501.47;;;21.91;100.00
58955;BME280;45815;52.334;5.024;2023-08-24T08:15:00;101488.84;;;22.01;100.00
58955;BME280;45815;52.334;5.024;2023-08-24T08:17:26;101504.63;;;22.13;100.00
58955;BME280;45815;52.334;5.024;2023-08-24T08:19:56;101501.81;;;22.23;100.00
58955;BME280;45815;52.334;5.024;2023-08-24T08:22:22;101496.38;;;22.29;100.00
58955;BME280;45815;52.334;5.024;2023-08-24T08:24:48;101492.59;;;22.39;100.00
58955;BME280;45815;52.334;5.024;2023-08-24T08:27:15;101498.63;;;22.50;100.00
58955;BME280;45815;52.334;5.024;2023-08-24T08:29:40;101502.94;;;22.58;100.00
58955;BME280;45815;52.334;5.024;2023-08-24T08:32:06;101500.97;;;22.66;100.00
58955;BME280;45815;52.334;5.024;2023-08-24T08:34:33;101494.66;;;22.68;100.00
58955;BME280;45815;52.334;5.024;2023-08-24T08:36:58;101487.50;;;22.70;100.00
58955;BME280;45815;52.334;5.024;2023-08-24T08:39:24;101490.16;;;22.72;100.00
58955;BME280;45815;52.334;5.024;2023-08-24T08:41:49;101497.16;;;22.77;100.00
58955;BME280;45815;52.334;5.024;2023-08-24T08:44:15;101484.63;;;22.80;100.00
58955;BME280;45815;52.334;5.024;2023-08-24T08:46:42;101484.44;;;22.87;100.00
58955;BME280;45815;52.334;5.024;2023-08-24T08:49:08;101483.56;;;22.88;100.00
58955;BME280;45815;52.334;5.024;2023-08-24T08:51:38;101486.16;;;22.91;100.00
58955;BME280;45815;52.334;5.024;2023-08-24T08:54:05;101475.41;;;22.94;100.00
58955;BME280;45815;52.334;5.024;2023-08-24T08:56:31;101467.38;;;22.93;100.00
58955;BME280;45815;52.334;5.024;2023-08-24T08:58:58;101471.69;;;23.02;100.00
58955;BME280;45815;52.334;5.024;2023-08-24T09:01:25;101468.94;;;23.05;100.00
58955;BME280;45815;52.334;5.024;2023-08-24T09:03:52;101455.56;;;23.05;100.00
58955;BME280;45815;52.334;5.024;2023-08-24T09:06:19;101457.16;;;23.13;100.00
58955;BME280;45815;52.334;5.024;2023-08-24T09:08:45;101445.47;;;23.16;100.00
58955;BME280;45815;52.334;5.024;2023-08-24T09:11:10;101425.00;;;23.13;100.00
58955;BME280;45815;52.334;5.024;2023-08-24T09:13:36;101421.38;;;23.16;100.00
58955;BME280;45815;52.334;5.024;2023-08-24T09:16:08;101423.13;;;23.17;100.00
58955;BME280;45815;52.334;5.024;2023-08-24T09:18:38;101430.25;;;23.18;100.00
58955;BME280;45815;52.334;5.024;2023-08-24T09:21:11;101429.31;;;23.19;100.00
58955;BME280;45815;52.334;5.024;2023-08-24T09:24:00;101443.66;;;23.18;100.00
58955;BME280;45815;52.334;5.024;2023-08-24T09:26:36;101430.47;;;23.09;100.00
58955;BME280;45815;52.334;5.024;2023-08-24T09:29:15;101442.06;;;23.09;100.00
58955;BME280;45815;52.334;5.024;2023-08-24T09:31:41;101438.56;;;23.06;100.00
58955;BME280;45815;52.334;5.024;2023-08-24T09:34:10;101438.56;;;23.06;100.00
58955;BME280;45815;52.334;5.024;2023-08-24T09:36:37;101428.88;;;23.02;100.00
58955;BME280;45815;52.334;5.024;2023-08-24T09:39:03;101421.78;;;22.97;100.00
58955;BME280;45815;52.334;5.024;2023-08-24T09:41:43;101413.00;;;22.91;100.00
58955;BME280;45815;52.334;5.024;2023-08-24T09:44:09;101399.63;;;22.89;100.00
58955;BME280;45815;52.334;5.024;2023-08-24T09:46:35;101405.06;;;22.88;100.00
58955;BME280;45815;52.334;5.024;2023-08-24T09:49:07;101409.56;;;22.84;100.00
58955;BME280;45815;52.334;5.024;2023-08-24T09:51:38;101410.56;;;22.80;100.00
58955;BME280;45815;52.334;5.024;2023-08-24T09:54:08;101409.69;;;22.80;100.00
58955;BME280;45815;52.334;5.024;2023-08-24T09:56:40;101412.34;;;22.80;100.00
58955;BME280;45815;52.334;5.024;2023-08-24T09:59:14;101407.97;;;22.75;100.00
58955;BME280;45815;52.334;5.024;2023-08-24T10:01:46;101412.41;;;22.78;100.00
58955;BME280;45815;52.334;5.024;2023-08-24T10:04:14;101408.84;;;22.77;100.00
58955;BME280;45815;52.334;5.024;2023-08-24T10:06:40;101400.00;;;22.74;100.00
58955;BME280;45815;52.334;5.024;2023-08-24T10:09:12;101402.69;;;22.74;100.00
58955;BME280;45815;52.334;5.024;2023-08-24T10:11:44;101406.25;;;22.73;100.00
58955;BME280;45815;52.334;5.024;2023-08-24T10:14:41;101426.09;;;22.64;100.00
58955;BME280;45815;52.334;5.024;2023-08-24T10:17:10;101422.59;;;22.61;100.00
58955;BME280;45815;52.334;5.024;2023-08-24T10:19:36;101449.19;;;22.68;100.00
58955;BME280;45815;52.334;5.024;2023-08-24T10:22:03;101443.81;;;22.70;100.00
58955;BME280;45815;52.334;5.024;2023-08-24T10:24:30;101455.34;;;22.72;100.00
58955;BME280;45815;52.334;5.024;2023-08-24T10:26:56;101454.50;;;22.70;100.00
58955;BME280;45815;52.334;5.024;2023-08-24T10:29:23;101443.16;;;22.59;100.00
58955;BME280;45815;52.334;5.024;2023-08-24T10:31:49;101467.97;;;22.65;100.00
58955;BME280;45815;52.334;5.024;2023-08-24T10:34:15;101471.59;;;22.63;100.00
58955;BME280;45815;52.334;5.024;2023-08-24T10:36:41;101474.28;;;22.63;100.00
58955;BME280;45815;52.334;5.024;2023-08-24T10:39:07;101466.25;;;22.63;100.00
58955;BME280;45815;52.334;5.024;2023-08-24T10:41:52;101448.56;;;22.55;100.00
58955;BME280;45815;52.334;5.024;2023-08-24T10:44:37;101438.75;;;22.54;100.00
58955;BME280;45815;52.334;5.024;2023-08-24T10:47:06;101444.94;;;22.58;100.00
58955;BME280;45815;52.334;5.024;2023-08-24T10:49:32;101446.78;;;22.56;100.00
58955;BME280;45815;52.334;5.024;2023-08-24T10:51:58;101428.13;;;22.51;100.00
58955;BME280;45815;52.334;5.024;2023-08-24T10:54:44;101442.28;;;22.57;100.00
58955;BME280;45815;52.334;5.024;2023-08-24T10:57:21;101437.88;;;22.54;100.00
58955;BME280;45815;52.334;5.024;2023-08-24T11:02:51;101452.13;;;22.54;100.00
58955;BME280;45815;52.334;5.024;2023-08-24T11:10:21;101460.06;;;22.61;100.00
58955;BME280;45815;52.334;5.024;2023-08-24T11:13:06;101475.25;;;22.59;100.00
58955;BME280;45815;52.334;5.024;2023-08-24T11:15:33;101470.75;;;22.61;100.00
58955;BME280;45815;52.334;5.024;2023-08-24T11:18:12;101461.94;;;22.55;100.00
58955;BME280;45815;52.334;5.024;2023-08-24T11:20:42;101460.06;;;22.61;100.00
58955;BME280;45815;52.334;5.024;2023-08-24T11:23:07;101450.22;;;22.61;100.00
58955;BME280;45815;52.334;5.024;2023-08-24T11:25:38;101445.81;;;22.60;100.00
58955;BME280;45815;52.334;5.024;2023-08-24T11:28:04;101452.13;;;22.54;100.00
58955;BME280;45815;52.334;5.024;2023-08-24T11:30:31;101429.91;;;22.52;100.00
58955;BME280;45815;52.334;5.024;2023-08-24T11:32:57;101413.88;;;22.52;100.00
58955;BME280;45815;52.334;5.024;2023-08-24T11:35:23;101403.97;;;22.56;100.00
58955;BME280;45815;52.334;5.024;2023-08-24T11:37:55;101387.91;;;22.56;100.00
58955;BME280;45815;52.334;5.024;2023-08-24T11:40:22;101387.00;;;22.57;100.00
58955;BME280;45815;52.334;5.024;2023-08-24T11:42:58;101380.75;;;22.57;100.00
58955;BME280;45815;52.334;5.024;2023-08-24T11:45:24;101376.22;;;22.62;100.00
58955;BME280;45815;52.334;5.024;2023-08-24T11:47:54;101371.84;;;22.58;100.00
58955;BME280;45815;52.334;5.024;2023-08-24T11:50:20;101364.69;;;22.58;100.00
58955;BME280;45815;52.334;5.024;2023-08-24T11:52:45;101368.22;;;22.59;100.00
58955;BME280;45815;52.334;5.024;2023-08-24T11:55:11;101354.94;;;22.55;100.00
58955;BME280;45815;52.334;5.024;2023-08-24T11:57:37;101354.84;;;22.59;100.00
58955;BME280;45815;52.334;5.024;2023-08-24T12:00:04;101353.91;;;22.61;100.00
58955;BME280;45815;52.334;5.024;2023-08-24T12:02:33;101357.19;;;22.74;100.00
58955;BME280;45815;52.334;5.024;2023-08-24T12:04:58;101353.41;;;22.83;100.00
58955;BME280;45815;52.334;5.024;2023-08-24T12:07:25;101341.69;;;22.88;100.00
58955;BME280;45815;52.334;5.024;2023-08-24T12:09:52;101339.75;;;22.93;100.00
58955;BME280;45815;52.334;5.024;2023-08-24T12:12:19;101337.94;;;22.95;100.00
58955;BME280;45815;52.334;5.024;2023-08-24T12:14:47;101337.16;;;22.90;100.00
58955;BME280;45815;52.334;5.024;2023-08-24T12:17:14;101334.31;;;23.00;100.00
58955;BME280;45815;52.334;5.024;2023-08-24T12:19:44;101325.19;;;23.07;100.00
58955;BME280;45815;52.334;5.024;2023-08-24T12:22:16;101322.28;;;23.16;100.00
58955;BME280;45815;52.334;5.024;2023-08-24T12:24:45;101328.31;;;23.24;100.00
58955;BME280;45815;52.334;5.024;2023-08-24T12:27:22;101333.34;;;23.36;100.00
58955;BME280;45815;52.334;5.024;2023-08-24T12:29:48;101327.75;;;23.46;100.00
58955;BME280;45815;52.334;5.024;2023-08-24T12:32:14;101324.88;;;23.53;100.00
58955;BME280;45815;52.334;5.024;2023-08-24T12:34:41;101300.88;;;23.49;100.00
58955;BME280;45815;52.334;5.024;2023-08-24T12:37:08;101298.13;;;23.52;100.00
58955;BME280;45815;52.334;5.024;2023-08-24T12:39:38;101291.88;;;23.51;100.00
58955;BME280;45815;52.334;5.024;2023-08-24T12:42:04;101276.84;;;23.46;100.00
58955;BME280;45815;52.334;5.024;2023-08-24T12:44:29;101255.59;;;23.39;100.00
58955;BME280;45815;52.334;5.024;2023-08-24T12:46:55;101248.56;;;23.35;100.00
58955;BME280;45815;52.334;5.024;2023-08-24T12:49:20;101244.16;;;23.33;100.00
58955;BME280;45815;52.334;5.024;2023-08-24T12:51:46;101248.78;;;23.28;100.00
58955;BME280;45815;52.334;5.024;2023-08-24T12:54:12;101252.44;;;23.24;100.00
58955;BME280;45815;52.334;5.024;2023-08-24T12:56:38;101253.41;;;23.21;100.00
58955;BME280;45815;52.334;5.024;2023-08-24T12:59:04;101239.09;;;23.22;100.00